Time;durP1;ratioP1;P1;durP2;ratioP2;P2;SDS_P1;SDS_P2;PMS_P1;PMS_P2;Temp;Humidity;BMP_temperature;BMP_pressure;BME280_temperature;BME280_humidity;BME280_pressure;Samples;Min_cycle;Max_cycle;Signal;HPM_P1;HPM_P2
2023/04/13 00:00:44;;;;;;;12.67;11.97;;;12.10;99.90;;;;;;5060844;28;20467;-43
2023/04/13 00:03:15;;;;;;;13.60;12.90;;;12.20;99.90;;;;;;5062283;28;20657;-46
2023/04/13 00:05:42;;;;;;;13.03;12.33;;;12.10;99.90;;;;;;5061854;28;20416;-46
2023/04/13 00:08:08;;;;;;;13.20;12.30;;;12.20;99.90;;;;;;5061740;28;20424;-46
2023/04/13 00:10:35;;;;;;;13.50;12.70;;;12.20;99.90;;;;;;5059427;28;20450;-45
2023/04/13 00:13:04;;;;;;;13.37;12.57;;;12.20;99.90;;;;;;5060974;28;20462;-45
2023/04/13 00:15:33;;;;;;;13.37;12.47;;;12.20;99.90;;;;;;5061772;28;20422;-44
2023/04/13 00:17:59;;;;;;;11.80;11.10;;;12.10;99.90;;;;;;5061378;28;20463;-48
2023/04/13 00:20:25;;;;;;;12.30;11.60;;;12.10;99.90;;;;;;5060549;28;20569;-46
2023/04/13 00:22:51;;;;;;;11.10;10.50;;;12.10;99.90;;;;;;5060806;28;20596;-44
2023/04/13 00:25:16;;;;;;;12.03;11.40;;;12.10;99.90;;;;;;5061277;28;20654;-45
2023/04/13 00:27:43;;;;;;;12.07;11.37;;;12.00;99.90;;;;;;5061230;28;20506;-47
2023/04/13 00:30:11;;;;;;;12.13;11.43;;;12.10;99.90;;;;;;5042486;28;20208;-47
2023/04/13 00:32:39;;;;;;;12.90;12.10;;;12.10;99.90;;;;;;5061406;28;20431;-45
2023/04/13 00:35:05;;;;;;;12.37;11.67;;;12.00;99.90;;;;;;5061184;28;20922;-42
2023/04/13 00:37:31;;;;;;;12.97;12.27;;;11.90;99.90;;;;;;5060821;28;20416;-44
2023/04/13 00:39:58;;;;;;;12.33;11.63;;;11.90;99.90;;;;;;5059699;28;20471;-44
2023/04/13 00:42:24;;;;;;;13.20;12.50;;;11.90;99.90;;;;;;5041703;28;20189;-44
2023/04/13 00:44:54;;;;;;;12.50;11.80;;;11.90;99.90;;;;;;5059839;28;20460;-44
2023/04/13 00:47:27;;;;;;;12.50;11.77;;;11.90;99.90;;;;;;5060763;28;20412;-48
2023/04/13 00:49:57;;;;;;;12.13;11.50;;;11.80;99.90;;;;;;5060335;28;20411;-47
2023/04/13 00:52:23;;;;;;;12.30;11.60;;;11.80;99.90;;;;;;5059943;28;20839;-42
2023/04/13 00:54:55;;;;;;;11.80;11.10;;;11.80;99.90;;;;;;5060978;28;20523;-41
2023/04/13 00:57:22;;;;;;;11.33;10.73;;;11.80;99.90;;;;;;5060702;28;20411;-46
2023/04/13 00:59:49;;;;;;;10.40;9.90;;;11.80;99.90;;;;;;5059592;28;20477;-43
2023/04/13 01:02:15;;;;;;;10.43;9.90;;;11.80;99.90;;;;;;5059607;28;20483;-43
2023/04/13 01:04:44;;;;;;;10.07;9.57;;;11.70;99.90;;;;;;5060691;28;20555;-44
2023/04/13 01:07:24;;;;;;;10.17;9.70;;;11.60;99.90;;;;;;5060603;28;20403;-45
2023/04/13 01:09:58;;;;;;;10.83;10.23;;;11.70;99.90;;;;;;5042873;28;20447;-50
2023/04/13 01:12:43;;;;;;;10.40;9.90;;;11.70;99.90;;;;;;5060344;28;20852;-47
2023/04/13 01:15:12;;;;;;;10.43;9.93;;;11.70;99.90;;;;;;5060535;28;20422;-44
2023/04/13 01:17:42;;;;;;;10.60;10.03;;;11.70;99.90;;;;;;5060301;28;20439;-44
2023/04/13 01:20:11;;;;;;;10.47;9.97;;;11.70;99.90;;;;;;5060221;28;20459;-49
2023/04/13 01:22:45;;;;;;;10.00;9.60;;;11.70;99.90;;;;;;5059498;28;20556;-46
2023/04/13 01:25:17;;;;;;;10.40;9.90;;;11.70;99.90;;;;;;5042618;28;20423;-48
2023/04/13 01:27:46;;;;;;;9.40;8.90;;;11.60;99.90;;;;;;5060453;28;20431;-46
2023/04/13 01:30:13;;;;;;;9.83;9.27;;;11.70;99.90;;;;;;5058621;28;20437;-42
2023/04/13 01:32:41;;;;;;;10.40;9.90;;;11.70;99.90;;;;;;5060067;28;20536;-46
2023/04/13 01:35:09;;;;;;;10.10;9.60;;;11.50;99.90;;;;;;5058722;28;20516;-45
2023/04/13 01:37:37;;;;;;;10.30;9.80;;;11.50;99.90;;;;;;5060121;28;20420;-46
2023/04/13 01:40:09;;;;;;;10.03;9.60;;;11.50;99.90;;;;;;5059969;28;21011;-44
2023/04/13 01:42:36;;;;;;;10.10;9.60;;;11.50;99.90;;;;;;5060273;28;20412;-44
2023/04/13 01:45:09;;;;;;;10.10;9.60;;;11.50;99.90;;;;;;5060285;28;20411;-46
2023/04/13 01:47:38;;;;;;;9.73;9.13;;;11.50;99.90;;;;;;5060345;28;20438;-42
2023/04/13 01:50:14;;;;;;;10.00;9.43;;;11.40;99.90;;;;;;5041140;28;20427;-46
2023/04/13 01:52:41;;;;;;;10.17;9.67;;;11.50;99.90;;;;;;5059842;28;20514;-46
2023/04/13 01:55:08;;;;;;;9.80;9.40;;;11.50;99.90;;;;;;5059835;28;20898;-45
2023/04/13 01:57:38;;;;;;;9.57;9.17;;;11.40;99.90;;;;;;5060347;28;20855;-50
2023/04/13 02:00:09;;;;;;;9.90;9.40;;;11.40;99.90;;;;;;5058836;28;20467;-47
2023/04/13 02:02:36;;;;;;;9.70;9.30;;;11.40;99.90;;;;;;5060072;28;20905;-44
2023/04/13 02:05:02;;;;;;;9.33;8.93;;;11.40;99.90;;;;;;5060046;28;20480;-47
2023/04/13 02:07:28;;;;;;;9.67;9.27;;;11.30;99.90;;;;;;5059748;28;20432;-46
2023/04/13 02:09:53;;;;;;;9.80;9.40;;;11.40;99.90;;;;;;5059394;28;20386;-45
2023/04/13 02:12:19;;;;;;;9.07;8.63;;;11.30;99.90;;;;;;5060043;28;20189;-46
2023/04/13 02:14:45;;;;;;;10.00;9.50;;;11.30;99.90;;;;;;5058655;28;20304;-46
2023/04/13 02:17:11;;;;;;;9.87;9.47;;;11.20;99.90;;;;;;5058689;28;20208;-48
2023/04/13 02:19:37;;;;;;;10.17;9.73;;;11.30;99.90;;;;;;5059173;28;20467;-47
2023/04/13 02:22:02;;;;;;;10.27;9.77;;;11.30;99.90;;;;;;5060119;28;20286;-42
2023/04/13 02:24:29;;;;;;;10.13;9.63;;;11.20;99.90;;;;;;5059791;28;20197;-45
2023/04/13 02:26:55;;;;;;;9.93;9.53;;;11.20;99.90;;;;;;5059692;28;20185;-48
2023/04/13 02:29:21;;;;;;;9.50;9.10;;;11.20;99.90;;;;;;5059096;28;20927;-43
2023/04/13 02:31:47;;;;;;;10.33;9.83;;;11.30;99.90;;;;;;5059299;28;20552;-46
2023/04/13 02:34:13;;;;;;;9.40;9.00;;;11.30;99.90;;;;;;5061588;28;20439;-44
2023/04/13 02:36:39;;;;;;;9.17;8.77;;;11.20;99.90;;;;;;5062438;28;20434;-45
2023/04/13 02:39:05;;;;;;;9.07;8.67;;;11.30;99.90;;;;;;5061782;28;20216;-47
2023/04/13 02:41:30;;;;;;;9.07;8.67;;;11.30;99.90;;;;;;5062471;28;20423;-45
2023/04/13 02:43:56;;;;;;;9.33;8.90;;;11.30;99.90;;;;;;5061304;28;20185;-46
2023/04/13 02:46:22;;;;;;;9.60;9.20;;;11.30;99.90;;;;;;5062438;28;20693;-43
2023/04/13 02:48:48;;;;;;;8.50;8.10;;;11.30;99.90;;;;;;5062061;28;20196;-44
2023/04/13 02:51:13;;;;;;;8.53;8.23;;;11.30;99.90;;;;;;5062098;28;20407;-49
2023/04/13 02:53:39;;;;;;;9.47;9.07;;;11.20;99.90;;;;;;5062386;28;20189;-46
2023/04/13 02:56:05;;;;;;;9.20;8.80;;;11.20;99.90;;;;;;5043294;28;20250;-43
2023/04/13 02:58:31;;;;;;;9.20;8.80;;;11.20;99.90;;;;;;5060872;28;20196;-46
2023/04/13 03:00:57;;;;;;;9.00;8.60;;;11.10;99.90;;;;;;5061262;28;20471;-44
2023/04/13 03:03:23;;;;;;;8.90;8.50;;;11.10;99.90;;;;;;5062007;28;20655;-42
2023/04/13 03:05:50;;;;;;;9.30;8.90;;;11.10;99.90;;;;;;5060673;28;20925;-45
2023/04/13 03:08:16;;;;;;;8.30;8.00;;;11.10;99.90;;;;;;5061929;28;20418;-44
2023/04/13 03:10:43;;;;;;;9.07;8.67;;;11.10;99.90;;;;;;5062101;28;20841;-43
2023/04/13 03:13:09;;;;;;;8.53;8.13;;;11.10;99.90;;;;;;5061955;28;20418;-46
2023/04/13 03:15:35;;;;;;;9.20;8.80;;;11.10;99.90;;;;;;5061628;28;20423;-44
2023/04/13 03:18:02;;;;;;;8.77;8.47;;;11.10;99.90;;;;;;5061387;28;20462;-45
2023/04/13 03:20:28;;;;;;;8.20;7.80;;;11.00;99.90;;;;;;5057211;28;21022;-47
2023/04/13 03:22:54;;;;;;;8.80;8.50;;;11.10;99.90;;;;;;5061456;28;20470;-46
2023/04/13 03:25:20;;;;;;;9.00;8.60;;;11.10;99.90;;;;;;5061557;28;20185;-45
2023/04/13 03:27:46;;;;;;;8.50;8.20;;;11.10;99.90;;;;;;5061996;28;20419;-46
2023/04/13 03:30:11;;;;;;;8.33;7.93;;;11.10;99.90;;;;;;5060153;28;20698;-45
2023/04/13 03:32:37;;;;;;;8.07;7.70;;;11.10;99.90;;;;;;5061012;28;20204;-45
2023/04/13 03:35:03;;;;;;;8.37;8.07;;;11.10;99.90;;;;;;5061297;28;20501;-45
2023/04/13 03:37:31;;;;;;;7.57;7.17;;;11.10;99.90;;;;;;5060901;28;20196;-43
2023/04/13 03:40:00;;;;;;;8.70;8.30;;;11.10;99.90;;;;;;5060909;28;20732;-47
2023/04/13 03:42:25;;;;;;;8.70;8.30;;;11.10;99.90;;;;;;5061384;28;20510;-43
2023/04/13 03:44:51;;;;;;;8.20;7.80;;;11.10;99.90;;;;;;5060064;28;20941;-47
2023/04/13 03:47:17;;;;;;;7.97;7.60;;;11.10;99.90;;;;;;5060685;28;20223;-47
2023/04/13 03:49:42;;;;;;;7.60;7.30;;;11.00;99.90;;;;;;5060783;28;20197;-46
2023/04/13 03:52:08;;;;;;;8.13;7.73;;;11.10;99.90;;;;;;5061376;28;20195;-44
2023/04/13 03:54:34;;;;;;;8.50;8.20;;;11.00;99.90;;;;;;5061219;28;20220;-45
2023/04/13 03:57:01;;;;;;;7.60;7.30;;;11.00;99.90;;;;;;5060669;28;20551;-44
2023/04/13 03:59:26;;;;;;;8.40;8.07;;;11.00;99.90;;;;;;5060687;28;20955;-44
2023/04/13 04:01:53;;;;;;;7.67;7.30;;;10.90;99.90;;;;;;5059089;28;20445;-44
2023/04/13 04:04:18;;;;;;;8.37;8.07;;;11.00;99.90;;;;;;5059576;28;20707;-45
2023/04/13 04:06:44;;;;;;;8.80;8.40;;;10.90;99.90;;;;;;5061279;28;20414;-44
2023/04/13 04:09:10;;;;;;;8.63;8.23;;;10.90;99.90;;;;;;5060475;28;20200;-42
2023/04/13 04:11:36;;;;;;;9.47;9.07;;;10.90;99.90;;;;;;5060334;28;20237;-42
2023/04/13 04:14:02;;;;;;;9.10;8.70;;;10.80;99.90;;;;;;5060532;28;21191;-44
2023/04/13 04:16:27;;;;;;;8.50;8.20;;;10.70;99.90;;;;;;5058058;28;20196;-41
2023/04/13 04:18:53;;;;;;;7.93;7.57;;;10.70;99.90;;;;;;5060275;28;20420;-43
2023/04/13 04:21:20;;;;;;;8.30;7.93;;;10.70;99.90;;;;;;5060487;28;20662;-42
2023/04/13 04:23:46;;;;;;;8.10;7.80;;;10.60;99.90;;;;;;5043697;28;20239;-41
2023/04/13 04:26:14;;;;;;;8.73;8.43;;;10.60;99.90;;;;;;5059929;28;21205;-45
2023/04/13 04:28:40;;;;;;;9.00;8.60;;;10.60;99.90;;;;;;5061258;28;20509;-42
2023/04/13 04:31:09;;;;;;;7.03;6.73;;;10.60;99.90;;;;;;5060679;28;20440;-40
2023/04/13 04:33:37;;;;;;;9.27;8.87;;;10.70;99.90;;;;;;5060539;28;20430;-44
2023/04/13 04:36:05;;;;;;;8.83;8.53;;;10.70;99.90;;;;;;5041757;28;20439;-46
2023/04/13 04:38:31;;;;;;;9.13;8.73;;;10.70;99.90;;;;;;5061257;28;20480;-42
2023/04/13 04:40:58;;;;;;;7.43;6.93;;;10.60;99.90;;;;;;5042565;28;20557;-43
2023/04/13 04:43:28;;;;;;;8.83;8.53;;;10.60;99.90;;;;;;5059734;28;20439;-42
2023/04/13 04:45:56;;;;;;;8.27;7.97;;;10.60;99.90;;;;;;5059892;28;20459;-41
2023/04/13 04:48:26;;;;;;;9.50;9.10;;;10.60;99.90;;;;;;5061205;28;20418;-41
2023/04/13 04:50:53;;;;;;;9.00;8.50;;;10.60;99.90;;;;;;5060398;28;20419;-42
2023/04/13 04:53:19;;;;;;;9.40;8.90;;;10.60;99.90;;;;;;5059894;28;20418;-46
2023/04/13 04:55:45;;;;;;;9.17;8.77;;;10.60;99.90;;;;;;5059428;28;20427;-42
2023/04/13 04:58:11;;;;;;;9.13;8.73;;;10.50;99.90;;;;;;5041616;28;20471;-41
2023/04/13 05:00:37;;;;;;;9.10;8.70;;;10.50;99.90;;;;;;5058976;28;20564;-46
2023/04/13 05:03:02;;;;;;;8.70;8.30;;;10.50;99.90;;;;;;5060036;28;20794;-41
2023/04/13 05:05:29;;;;;;;8.63;8.13;;;10.40;99.90;;;;;;5059761;28;20422;-43
2023/04/13 05:07:55;;;;;;;9.07;8.47;;;10.40;99.90;;;;;;5059721;28;20188;-41
2023/04/13 05:10:23;;;;;;;7.63;7.33;;;10.40;99.90;;;;;;5059804;28;20465;-42
2023/04/13 05:12:49;;;;;;;9.70;9.20;;;10.40;99.90;;;;;;5059544;28;20439;-43
2023/04/13 05:15:15;;;;;;;9.00;8.60;;;10.40;99.90;;;;;;5059823;28;20736;-42
2023/04/13 05:17:40;;;;;;;9.23;8.77;;;10.50;99.90;;;;;;5059732;28;21072;-43
2023/04/13 05:20:07;;;;;;;9.93;9.37;;;10.40;99.90;;;;;;5059739;28;20700;-45
2023/04/13 05:22:32;;;;;;;9.37;8.93;;;10.40;99.90;;;;;;5059379;28;20232;-42
2023/04/13 05:24:58;;;;;;;9.53;9.00;;;10.40;99.90;;;;;;5060028;28;20776;-42
2023/04/13 05:27:24;;;;;;;8.53;8.17;;;10.50;99.90;;;;;;5059432;28;20193;-44
2023/04/13 05:29:50;;;;;;;9.03;8.63;;;10.40;99.90;;;;;;5059565;28;20203;-44
2023/04/13 05:32:15;;;;;;;8.50;8.10;;;10.40;99.90;;;;;;5041520;28;20188;-41
2023/04/13 05:34:41;;;;;;;8.60;8.20;;;10.40;99.90;;;;;;5059691;28;20437;-40
2023/04/13 05:37:09;;;;;;;8.50;8.10;;;10.40;99.90;;;;;;5059602;28;20193;-43
2023/04/13 05:39:35;;;;;;;8.97;8.57;;;10.40;99.90;;;;;;5058704;28;20226;-43
2023/04/13 05:42:00;;;;;;;9.53;9.13;;;10.50;99.90;;;;;;5058065;28;20431;-44
2023/04/13 05:44:26;;;;;;;9.23;8.80;;;10.40;99.90;;;;;;5059309;28;20645;-42
2023/04/13 05:46:52;;;;;;;10.10;9.50;;;10.40;99.90;;;;;;5059324;28;20191;-42
2023/04/13 05:49:18;;;;;;;8.37;7.93;;;10.50;99.90;;;;;;5059683;28;20190;-43
2023/04/13 05:51:43;;;;;;;8.97;8.57;;;10.50;99.90;;;;;;5059139;28;20429;-44
2023/04/13 05:54:09;;;;;;;9.53;9.10;;;10.50;99.90;;;;;;5059435;28;20479;-41
2023/04/13 05:56:35;;;;;;;9.20;8.80;;;10.50;99.90;;;;;;5059722;28;20502;-40
2023/04/13 05:59:03;;;;;;;9.20;8.40;;;10.60;99.90;;;;;;5059214;28;20459;-42
2023/04/13 06:01:29;;;;;;;8.17;7.83;;;10.50;99.90;;;;;;5059441;28;20426;-40
2023/04/13 06:03:55;;;;;;;9.90;8.97;;;10.50;99.90;;;;;;5059402;28;20442;-43
2023/04/13 06:06:21;;;;;;;8.10;7.80;;;10.60;98.10;;;;;;5058906;28;20463;-43
2023/04/13 06:08:47;;;;;;;9.60;9.20;;;10.60;97.80;;;;;;5061780;28;20677;-44
2023/04/13 06:11:12;;;;;;;8.93;8.53;;;10.60;97.40;;;;;;5062699;28;20527;-42
2023/04/13 06:13:40;;;;;;;8.90;8.53;;;10.50;97.60;;;;;;5062956;28;20427;-43
2023/04/13 06:16:06;;;;;;;9.47;9.03;;;10.60;97.90;;;;;;5063287;28;20184;-42
2023/04/13 06:18:32;;;;;;;8.27;7.97;;;10.60;98.00;;;;;;5063164;28;20425;-47
2023/04/13 06:20:58;;;;;;;8.27;7.87;;;10.60;97.00;;;;;;5062766;28;20466;-43
2023/04/13 06:23:24;;;;;;;8.73;8.33;;;10.50;96.80;;;;;;5062772;28;20236;-41
2023/04/13 06:25:50;;;;;;;8.70;8.30;;;10.50;96.80;;;;;;5061063;28;20442;-41
2023/04/13 06:28:16;;;;;;;8.90;8.50;;;10.50;96.60;;;;;;5063518;28;20488;-41
2023/04/13 06:30:42;;;;;;;9.10;8.60;;;10.60;96.10;;;;;;5062216;28;20912;-41
2023/04/13 06:33:07;;;;;;;8.83;8.53;;;10.60;96.30;;;;;;5062620;28;20188;-42
2023/04/13 06:35:34;;;;;;;8.87;8.37;;;10.60;95.50;;;;;;5062508;28;20193;-42
2023/04/13 06:38:01;;;;;;;8.80;8.40;;;10.50;95.50;;;;;;5062990;28;20231;-43
2023/04/13 06:40:27;;;;;;;8.73;8.33;;;10.60;95.60;;;;;;5061694;28;20474;-40
2023/04/13 06:42:53;;;;;;;7.80;7.37;;;10.50;95.30;;;;;;5062635;28;20423;-44
2023/04/13 06:45:20;;;;;;;7.93;7.53;;;10.50;95.30;;;;;;5061803;28;20421;-42
2023/04/13 06:47:46;;;;;;;7.90;7.50;;;10.50;94.80;;;;;;5062574;28;20923;-43
2023/04/13 06:50:12;;;;;;;7.90;7.50;;;10.50;94.90;;;;;;5061894;28;20426;-41
2023/04/13 06:52:42;;;;;;;9.13;8.70;;;10.50;95.70;;;;;;5061926;28;20454;-40
2023/04/13 06:55:08;;;;;;;8.83;8.43;;;10.60;95.10;;;;;;5062040;28;21184;-45
2023/04/13 06:57:34;;;;;;;8.40;7.80;;;10.60;94.80;;;;;;5062544;28;20424;-42
2023/04/13 06:59:59;;;;;;;8.63;8.13;;;10.70;94.00;;;;;;5061786;28;20302;-44
2023/04/13 07:02:25;;;;;;;9.40;9.00;;;10.70;94.40;;;;;;5062148;28;20181;-42
2023/04/13 07:04:51;;;;;;;8.40;8.10;;;10.60;94.30;;;;;;5062196;28;20279;-45
2023/04/13 07:07:17;;;;;;;8.57;7.97;;;10.70;93.90;;;;;;5062259;28;20817;-41
2023/04/13 07:09:43;;;;;;;9.00;8.50;;;10.60;93.90;;;;;;5061543;28;20187;-40
2023/04/13 07:12:08;;;;;;;8.17;7.77;;;10.70;93.90;;;;;;5059922;28;20645;-43
2023/04/13 07:14:35;;;;;;;8.70;8.30;;;10.70;93.80;;;;;;5059295;28;20191;-44
2023/04/13 07:17:01;;;;;;;9.20;8.80;;;10.80;93.90;;;;;;5058671;28;20250;-44
2023/04/13 07:19:29;;;;;;;8.67;8.07;;;10.90;93.50;;;;;;5060838;28;20477;-46
2023/04/13 07:21:55;;;;;;;8.27;7.97;;;11.10;93.40;;;;;;5061542;28;21307;-45
2023/04/13 07:24:21;;;;;;;8.80;8.20;;;11.10;92.70;;;;;;5043755;28;20523;-42
2023/04/13 07:26:47;;;;;;;8.20;7.80;;;11.20;92.70;;;;;;5061515;28;20177;-44
2023/04/13 07:29:15;;;;;;;8.97;8.47;;;11.30;93.00;;;;;;5061498;28;20426;-44
2023/04/13 07:31:42;;;;;;;8.90;8.40;;;11.40;92.60;;;;;;5061993;28;20193;-43
2023/04/13 07:34:08;;;;;;;8.67;8.37;;;11.50;91.30;;;;;;5043356;28;20452;-46
2023/04/13 07:36:33;;;;;;;8.53;7.93;;;11.40;90.80;;;;;;5061298;28;20525;-43
2023/04/13 07:39:00;;;;;;;8.87;8.37;;;11.30;91.00;;;;;;5061070;28;20189;-44
2023/04/13 07:41:25;;;;;;;9.20;8.70;;;11.30;91.40;;;;;;5058726;28;20177;-44
2023/04/13 07:43:51;;;;;;;8.97;8.53;;;11.30;91.50;;;;;;5061014;28;20435;-43
2023/04/13 07:46:17;;;;;;;9.20;8.67;;;11.30;91.80;;;;;;5060835;28;20212;-43
2023/04/13 07:48:42;;;;;;;8.33;7.87;;;11.20;92.30;;;;;;5061198;28;20216;-42
2023/04/13 07:51:18;;;;;;;8.50;8.10;;;11.10;91.60;;;;;;5061356;28;20550;-42
2023/04/13 07:53:44;;;;;;;8.50;7.87;;;11.10;92.10;;;;;;5061015;28;20263;-43
2023/04/13 07:56:10;;;;;;;9.20;8.80;;;11.10;91.90;;;;;;5061081;28;21139;-44
2023/04/13 07:58:36;;;;;;;8.37;8.00;;;11.30;91.40;;;;;;5060949;28;20260;-42
2023/04/13 08:01:02;;;;;;;9.47;9.00;;;11.40;91.60;;;;;;5060672;28;20216;-43
2023/04/13 08:03:33;;;;;;;9.30;8.90;;;11.60;91.50;;;;;;5061712;28;20431;-44
2023/04/13 08:05:59;;;;;;;9.20;8.77;;;11.90;90.80;;;;;;5060858;28;21027;-43
2023/04/13 08:08:25;;;;;;;9.93;9.33;;;12.00;90.40;;;;;;5060809;28;20415;-43
2023/04/13 08:10:51;;;;;;;8.90;8.50;;;12.00;90.10;;;;;;5058855;28;20192;-43
2023/04/13 08:13:17;;;;;;;9.17;8.60;;;12.00;88.90;;;;;;5060848;28;20731;-41
2023/04/13 08:15:43;;;;;;;9.60;9.20;;;11.80;88.20;;;;;;5060232;28;20782;-42
2023/04/13 08:18:12;;;;;;;8.30;8.00;;;11.90;88.90;;;;;;5060286;28;20473;-44
2023/04/13 08:20:37;;;;;;;8.83;8.37;;;11.90;89.10;;;;;;5059666;28;20506;-42
2023/04/13 08:23:04;;;;;;;9.00;8.40;;;11.80;88.50;;;;;;5060487;28;20553;-42
2023/04/13 08:25:30;;;;;;;8.53;8.03;;;11.80;88.00;;;;;;5060367;28;20215;-44
2023/04/13 08:27:55;;;;;;;9.37;8.87;;;11.90;87.90;;;;;;5060380;28;20949;-48
2023/04/13 08:30:21;;;;;;;8.50;8.10;;;11.70;80.30;;;;;;5059750;28;20469;-41
2023/04/13 08:32:47;;;;;;;8.20;7.90;;;11.40;81.10;;;;;;5060047;28;20663;-42
2023/04/13 08:35:14;;;;;;;9.00;8.60;;;11.40;82.30;;;;;;5060268;28;21151;-40
2023/04/13 08:37:40;;;;;;;8.50;8.10;;;11.40;82.40;;;;;;5060282;28;20434;-44
2023/04/13 08:40:10;;;;;;;8.50;8.10;;;11.30;83.50;;;;;;5058866;28;20472;-41
2023/04/13 08:42:37;;;;;;;9.07;8.67;;;11.40;83.30;;;;;;5060080;28;20410;-42
2023/04/13 08:45:03;;;;;;;9.23;8.83;;;11.40;83.40;;;;;;5060177;28;20414;-41
2023/04/13 08:47:29;;;;;;;8.63;8.23;;;11.50;83.50;;;;;;5059581;28;20593;-43
2023/04/13 08:49:59;;;;;;;8.60;8.17;;;11.80;83.90;;;;;;5060114;28;20739;-44
2023/04/13 08:52:26;;;;;;;7.87;7.40;;;11.90;82.80;;;;;;5060149;28;20188;-44
2023/04/13 08:54:54;;;;;;;9.07;8.67;;;11.90;83.90;;;;;;5059882;28;20420;-41
2023/04/13 08:57:21;;;;;;;9.93;9.27;;;12.00;83.00;;;;;;5059695;28;20426;-42
2023/04/13 08:59:51;;;;;;;8.53;7.90;;;12.20;82.70;;;;;;5059799;28;21198;-44
2023/04/13 09:02:27;;;;;;;8.90;8.50;;;12.20;80.10;;;;;;5059581;28;20587;-48
2023/04/13 09:04:58;;;;;;;8.73;8.33;;;12.30;79.30;;;;;;5058599;28;20946;-45
2023/04/13 09:07:27;;;;;;;10.20;9.50;;;12.10;78.90;;;;;;5058392;28;20423;-46
2023/04/13 09:09:57;;;;;;;9.43;9.03;;;12.20;79.20;;;;;;5059117;28;20441;-45
2023/04/13 09:12:27;;;;;;;9.40;8.90;;;12.20;80.00;;;;;;5059749;28;20510;-46
2023/04/13 09:14:53;;;;;;;9.47;8.97;;;12.20;77.20;;;;;;5059864;28;20889;-44
2023/04/13 09:17:27;;;;;;;9.20;8.80;;;12.20;76.30;;;;;;5041441;28;20430;-46
2023/04/13 09:19:55;;;;;;;9.13;8.73;;;12.00;74.70;;;;;;5059486;28;20201;-42
2023/04/13 09:22:20;;;;;;;9.40;8.90;;;11.90;74.70;;;;;;5059676;28;20459;-46
2023/04/13 09:24:47;;;;;;;9.70;9.10;;;12.00;72.60;;;;;;5059490;28;20769;-44
2023/04/13 09:27:33;;;;;;;9.70;9.20;;;11.90;75.40;;;;;;5059232;28;20625;-45
2023/04/13 09:30:00;;;;;;;9.80;9.17;;;12.00;73.40;;;;;;5059687;28;20913;-47
2023/04/13 09:32:27;;;;;;;9.07;8.67;;;12.10;74.70;;;;;;5059403;28;20412;-47
2023/04/13 09:35:12;;;;;;;9.43;8.77;;;12.10;75.00;;;;;;5059307;28;20955;-48
2023/04/13 09:37:41;;;;;;;8.73;8.23;;;12.10;73.20;;;;;;5059589;28;20781;-44
2023/04/13 09:40:12;;;;;;;8.80;8.30;;;12.10;73.50;;;;;;5058599;28;20999;-44
2023/04/13 09:42:52;;;;;;;7.83;7.50;;;12.00;73.60;;;;;;5059100;28;20426;-42
2023/04/13 09:45:18;;;;;;;8.80;8.40;;;11.80;74.60;;;;;;5059296;28;20411;-46
2023/04/13 09:47:44;;;;;;;9.67;9.17;;;11.90;75.00;;;;;;5059421;28;20423;-46
2023/04/13 09:50:20;;;;;;;9.53;9.03;;;11.70;73.60;;;;;;5059038;28;20510;-45
2023/04/13 09:52:46;;;;;;;9.30;8.90;;;11.50;73.30;;;;;;5059103;28;20438;-44
2023/04/13 09:55:16;;;;;;;8.87;8.37;;;11.50;73.90;;;;;;5041335;28;20492;-43
2023/04/13 09:57:42;;;;;;;8.10;7.60;;;11.50;73.70;;;;;;5059191;28;20216;-41
2023/04/13 10:00:15;;;;;;;8.23;7.83;;;11.60;74.20;;;;;;5059212;28;20475;-42
2023/04/13 10:02:41;;;;;;;8.67;8.17;;;11.60;73.20;;;;;;5059284;28;20505;-45
2023/04/13 10:05:11;;;;;;;8.90;8.50;;;11.70;74.40;;;;;;5059064;28;20652;-42
2023/04/13 10:07:38;;;;;;;8.43;8.03;;;11.90;73.70;;;;;;5059117;28;20415;-43
2023/04/13 10:10:05;;;;;;;9.03;8.53;;;12.00;73.20;;;;;;5058229;28;20595;-43
2023/04/13 10:12:34;;;;;;;9.43;8.93;;;12.20;72.20;;;;;;5059115;28;20506;-45
2023/04/13 10:15:39;;;;;;;8.53;8.10;;;12.40;72.20;;;;;;5059300;28;20426;-40
2023/04/13 10:18:41;;;;;;;8.93;8.27;;;12.50;70.60;;;;;;5040783;28;20461;-43
2023/04/13 10:21:07;;;;;;;8.47;8.07;;;12.50;69.50;;;;;;5059046;28;20461;-47
2023/04/13 10:23:34;;;;;;;9.10;8.70;;;12.60;70.20;;;;;;5059104;28;20960;-43
2023/04/13 10:26:02;;;;;;;9.13;8.67;;;13.00;69.90;;;;;;5041263;28;20428;-42
2023/04/13 10:28:28;;;;;;;8.93;8.53;;;13.40;68.00;;;;;;5058679;28;20423;-46
2023/04/13 10:30:54;;;;;;;8.90;8.40;;;13.90;67.50;;;;;;5058809;28;20506;-44
2023/04/13 10:33:20;;;;;;;8.30;8.00;;;14.70;63.60;;;;;;5059117;28;20916;-43
2023/04/13 10:35:57;;;;;;;9.10;8.70;;;14.90;59.60;;;;;;5041345;28;20435;-44
2023/04/13 10:38:23;;;;;;;9.67;9.20;;;14.70;59.00;;;;;;5058827;28;20878;-47
2023/04/13 10:40:49;;;;;;;9.47;9.07;;;14.80;59.30;;;;;;5058107;28;20503;-44
2023/04/13 10:43:28;;;;;;;10.13;9.63;;;15.20;57.50;;;;;;5058653;28;20877;-44
2023/04/13 10:46:08;;;;;;;9.70;9.30;;;15.40;56.00;;;;;;5058809;28;20411;-43
2023/04/13 10:48:34;;;;;;;8.47;8.07;;;15.60;54.70;;;;;;5058683;28;20712;-41
2023/04/13 10:51:00;;;;;;;9.20;8.80;;;16.00;53.00;;;;;;5058597;28;20510;-45
2023/04/13 10:53:29;;;;;;;8.70;8.20;;;16.90;51.30;;;;;;5058522;28;20457;-43
2023/04/13 10:55:56;;;;;;;9.30;8.90;;;16.30;48.70;;;;;;5061272;28;20496;-45
2023/04/13 10:58:22;;;;;;;8.47;8.07;;;15.80;50.10;;;;;;5062219;28;20516;-43
2023/04/13 11:00:50;;;;;;;8.83;8.43;;;16.40;52.00;;;;;;5062476;28;20675;-45
2023/04/13 11:03:17;;;;;;;9.30;8.90;;;17.30;49.30;;;;;;5062077;28;20909;-43
2023/04/13 11:05:55;;;;;;;8.87;8.47;;;18.10;46.60;;;;;;5062069;28;20924;-44
2023/04/13 11:08:20;;;;;;;9.30;8.90;;;18.80;43.10;;;;;;5060641;28;20798;-45
2023/04/13 11:10:53;;;;;;;9.00;8.57;;;18.80;40.80;;;;;;5044008;28;20443;-44
2023/04/13 11:13:19;;;;;;;9.30;8.87;;;19.00;40.20;;;;;;5062077;28;20255;-41
2023/04/13 11:15:47;;;;;;;9.70;9.27;;;19.40;39.90;;;;;;5062008;28;20965;-43
2023/04/13 11:18:25;;;;;;;8.70;8.30;;;20.10;40.70;;;;;;5061100;28;20883;-43
2023/04/13 11:20:50;;;;;;;8.67;8.27;;;19.00;37.20;;;;;;5060050;28;20984;-40
2023/04/13 11:23:17;;;;;;;8.73;8.33;;;17.50;39.50;;;;;;5061728;28;20477;-38
2023/04/13 11:25:56;;;;;;;9.00;8.60;;;18.20;42.60;;;;;;5061774;28;20200;-41
2023/04/13 11:28:23;;;;;;;7.90;7.50;;;18.50;38.60;;;;;;5061987;28;20822;-42
2023/04/13 11:30:54;;;;;;;8.60;8.10;;;18.70;41.20;;;;;;5061788;28;20439;-43
2023/04/13 11:33:25;;;;;;;8.67;8.07;;;19.20;40.50;;;;;;5061599;28;20464;-41
2023/04/13 11:35:52;;;;;;;8.27;7.87;;;19.10;37.70;;;;;;5061303;28;20423;-41
2023/04/13 11:38:19;;;;;;;8.50;8.10;;;18.60;39.50;;;;;;5060424;28;20427;-42
2023/04/13 11:40:46;;;;;;;8.40;8.10;;;18.10;37.70;;;;;;5061461;28;20825;-42
2023/04/13 11:43:14;;;;;;;8.10;7.60;;;18.10;41.50;;;;;;5061505;28;20420;-42
2023/04/13 11:45:42;;;;;;;8.87;8.37;;;18.20;40.60;;;;;;5061585;28;20431;-42
2023/04/13 11:48:08;;;;;;;8.83;8.43;;;17.70;38.80;;;;;;5061027;28;20506;-44
2023/04/13 11:50:35;;;;;;;8.00;7.60;;;17.50;39.30;;;;;;5061026;28;20415;-45
2023/04/13 11:53:02;;;;;;;9.13;8.73;;;17.80;42.20;;;;;;5060868;28;20936;-43
2023/04/13 11:55:28;;;;;;;7.23;6.93;;;18.30;40.40;;;;;;5061024;28;20412;-46
2023/04/13 11:57:54;;;;;;;8.23;7.90;;;18.00;38.80;;;;;;5061185;28;20474;-42
2023/04/13 12:00:27;;;;;;;8.77;8.37;;;17.90;40.30;;;;;;5061113;28;20478;-43
2023/04/13 12:02:55;;;;;;;8.40;7.90;;;17.80;41.10;;;;;;5061105;28;20510;-44
2023/04/13 12:05:29;;;;;;;8.53;8.13;;;17.40;39.30;;;;;;5059397;28;20477;-41
2023/04/13 12:07:56;;;;;;;8.67;8.37;;;17.80;42.50;;;;;;5060090;28;20509;-41
2023/04/13 12:10:23;;;;;;;7.60;7.30;;;18.10;41.30;;;;;;5060731;28;20874;-42
2023/04/13 12:13:05;;;;;;;8.70;8.30;;;18.00;40.40;;;;;;5060903;28;20438;-41
2023/04/13 12:15:32;;;;;;;8.17;7.60;;;17.90;39.00;;;;;;5060366;28;20762;-42
2023/04/13 12:18:00;;;;;;;9.20;8.80;;;17.60;39.60;;;;;;5060669;28;20925;-44
2023/04/13 12:20:35;;;;;;;9.03;8.33;;;17.40;39.40;;;;;;5061009;28;20600;-46
2023/04/13 12:23:01;;;;;;;8.97;8.67;;;17.40;42.00;;;;;;5060313;28;20498;-41
2023/04/13 12:25:30;;;;;;;8.17;7.70;;;17.40;42.20;;;;;;5060744;28;20408;-44
2023/04/13 12:27:56;;;;;;;8.33;7.93;;;17.60;42.20;;;;;;5060611;28;20416;-43
2023/04/13 12:30:22;;;;;;;8.40;8.00;;;17.70;42.00;;;;;;5060440;28;20422;-44
2023/04/13 12:32:51;;;;;;;8.33;7.93;;;17.90;41.30;;;;;;5061034;28;20533;-46
2023/04/13 12:35:18;;;;;;;9.03;8.63;;;17.90;38.80;;;;;;5060607;28;20200;-41
2023/04/13 12:37:45;;;;;;;9.33;8.83;;;18.80;37.70;;;;;;5060365;28;20498;-43
2023/04/13 12:40:15;;;;;;;8.57;8.17;;;19.70;37.20;;;;;;5041514;28;20829;-41
2023/04/13 12:42:45;;;;;;;8.73;8.27;;;19.10;35.00;;;;;;5060182;28;20420;-44
2023/04/13 12:45:11;;;;;;;7.83;7.43;;;18.50;36.20;;;;;;5059978;28;20411;-43
2023/04/13 12:47:36;;;;;;;10.03;9.43;;;18.00;37.70;;;;;;5060105;28;20464;-41